Sevastopol', Ukraine
Current Conditions -  °F | °C
As of 10:30 PM on Tuesday 21 Oct 2014 (Local Time) from URFF Reporting Station
Haze Haze  
Wind Chill: 57°   Ceiling: 10000
Heat Index: 57°   Visibility: 3mi
Dew Point: 54°   Wind: 11mph
Humidity: 88%   Direction: 200°SSW
Pressure: 29.8"   Gusts: NA
Location:  44.6°N, 33.53°E
Report Text: URFF 211930Z 20005MPS 160V220 5000 BR FEW011 SCT033CB OVC10014/12 Q1009 19010065 TEMPO 0500 FG OVC002
Loading
Personal Weather Stations






























Interactive Weather Map
Tropical Storm Tracking
New forecast layout! Learn more

10-Day Weather Forecast

Advertisements
Track Severe Weather on mobile